Time;durP1;ratioP1;P1;durP2;ratioP2;P2;SDS_P1;SDS_P2;PMS_P1;PMS_P2;Temp;Humidity;BMP_temperature;BMP_pressure;BME280_temperature;BME280_humidity;BME280_pressure;Samples;Min_cycle;Max_cycle;Signal;HPM_P1;HPM_P2
2021/11/02 00:01:26;;;;;;;58.00;35.45;;;;;;;9.04;69.55;98859.61;2129065;82;21504;-76
2021/11/02 00:04:28;;;;;;;63.90;35.85;;;;;;;9.00;69.71;98861.00;2130817;82;21048;-77
2021/11/02 00:07:30;;;;;;;58.15;36.08;;;;;;;8.99;69.93;98852.25;2124398;82;20998;-75
2021/11/02 00:10:32;;;;;;;61.45;38.23;;;;;;;9.00;70.34;98841.16;2126012;82;20996;-75
2021/11/02 00:13:39;;;;;;;59.70;35.65;;;;;;;9.00;70.04;98843.81;2129047;82;21540;-74
2021/11/02 00:16:44;;;;;;;65.40;38.95;;;;;;;9.02;70.12;98843.13;2126812;82;21020;-75
2021/11/02 00:19:48;;;;;;;59.20;35.43;;;;;;;9.05;70.17;98836.95;2125768;82;21020;-75
2021/11/02 00:22:57;;;;;;;67.90;37.67;;;;;;;9.05;70.15;98844.07;2125901;82;20951;-77
2021/11/02 00:25:58;;;;;;;56.55;35.17;;;;;;;9.05;70.22;98837.45;2132644;82;21087;-75
2021/11/02 00:29:00;;;;;;;62.90;36.55;;;;;;;9.08;70.28;98829.14;2128244;82;20981;-75
2021/11/02 00:32:01;;;;;;;66.47;38.25;;;;;;;9.13;70.39;98822.78;2125693;82;21487;-76
2021/11/02 00:35:04;;;;;;;61.88;37.15;;;;;;;9.17;70.30;98826.17;2126989;82;21416;-75
2021/11/02 00:38:06;;;;;;;61.63;37.40;;;;;;;9.21;70.24;98816.05;2118061;82;20986;-76
2021/11/02 00:41:07;;;;;;;65.35;39.50;;;;;;;9.22;70.29;98823.47;2112758;83;21504;-75
2021/11/02 00:44:10;;;;;;;61.08;35.50;;;;;;;9.20;70.20;98811.73;2113462;83;21109;-78
2021/11/02 00:47:17;;;;;;;60.52;35.23;;;;;;;9.09;70.20;98810.92;2090039;82;21023;-75
2021/11/02 00:50:16;;;;;;;60.98;34.92;;;;;;;9.02;70.30;98803.44;2111411;82;21080;-76
2021/11/02 00:53:17;;;;;;;49.93;31.30;;;;;;;9.03;70.42;98799.77;2112371;83;21658;-76
2021/11/02 00:56:19;;;;;;;67.92;36.55;;;;;;;9.09;70.42;98799.02;2114329;82;21045;-76
2021/11/02 00:59:20;;;;;;;61.85;38.50;;;;;;;9.08;70.51;98798.20;2105828;83;21032;-76
2021/11/02 01:02:31;;;;;;;67.10;40.00;;;;;;;9.08;70.52;98806.65;2111115;83;21027;-77
2021/11/02 01:05:33;;;;;;;;;;;;;;;9.10;70.60;98800.67;2107410;83;21694;-74
2021/11/02 01:08:35;;;;;;;65.10;38.73;;;;;;;9.05;70.66;98799.09;2111147;82;20425;-76
2021/11/02 01:11:36;;;;;;;62.05;38.98;;;;;;;9.04;70.71;98794.78;2112675;82;21506;-74
2021/11/02 01:14:39;;;;;;;67.70;38.75;;;;;;;9.00;70.74;98797.00;2108232;82;21020;-75
2021/11/02 01:17:43;;;;;;;64.92;39.00;;;;;;;9.00;70.83;98794.86;2111282;82;21041;-79
2021/11/02 01:20:44;;;;;;;64.37;36.08;;;;;;;9.02;70.85;98790.20;2111109;83;21048;-76
2021/11/02 01:23:48;;;;;;;65.12;36.58;;;;;;;9.07;71.00;98783.85;2105336;82;20982;-77
2021/11/02 01:26:50;;;;;;;66.70;38.92;;;;;;;9.13;70.91;98781.25;2118925;82;20992;-77
2021/11/02 01:29:52;;;;;;;66.97;40.15;;;;;;;9.17;70.91;98777.72;2114779;83;21021;-78
2021/11/02 01:32:54;;;;;;;65.40;40.55;;;;;;;9.23;71.06;98776.95;2116864;82;21005;-77
2021/11/02 01:35:56;;;;;;;68.50;41.92;;;;;;;9.23;70.88;98769.02;2107385;82;21096;-78
2021/11/02 01:38:58;;;;;;;66.85;38.65;;;;;;;9.25;70.96;98770.16;2125646;81;21014;-78
2021/11/02 01:42:01;;;;;;;64.12;38.00;;;;;;;9.25;70.86;98755.09;2129504;82;21082;-78
2021/11/02 01:45:05;;;;;;;60.35;38.10;;;;;;;9.24;70.86;98755.30;2128199;82;21496;-77
2021/11/02 01:48:07;;;;;;;59.83;37.53;;;;;;;9.26;71.00;98747.45;2130937;82;21011;-78
2021/11/02 01:51:17;;;;;;;67.20;40.55;;;;;;;9.25;70.80;98740.53;2129687;82;21516;-79
2021/11/02 01:54:19;;;;;;;67.62;41.73;;;;;;;9.18;70.94;98738.36;2129317;82;21072;-78
2021/11/02 01:57:21;;;;;;;67.67;40.88;;;;;;;9.15;71.04;98732.94;2128450;82;21475;-77
2021/11/02 02:00:24;;;;;;;75.25;42.73;;;;;;;9.09;71.05;98722.28;2125813;82;21012;-78
2021/11/02 02:03:50;;;;;;;69.12;41.05;;;;;;;9.10;71.14;98723.42;2124509;82;21069;-79
2021/11/02 02:07:25;;;;;;;69.70;40.28;;;;;;;9.10;71.21;98722.61;2132195;82;21017;-79
2021/11/02 02:10:44;;;;;;;68.85;41.75;;;;;;;9.11;71.24;98722.91;2128066;82;21041;-79
2021/11/02 02:13:54;;;;;;;68.20;41.58;;;;;;;9.18;71.38;98726.45;2126883;82;21061;-78
2021/11/02 02:17:01;;;;;;;81.17;45.48;;;;;;;9.20;71.38;98711.17;2121479;82;21088;-78
2021/11/02 02:20:10;;;;;;;64.50;39.80;;;;;;;9.12;71.30;98709.98;2127553;82;21044;-78
2021/11/02 02:23:24;;;;;;;69.90;38.42;;;;;;;9.08;71.46;98702.94;2129200;82;21535;-79
2021/11/02 02:26:44;;;;;;;68.60;40.17;;;;;;;8.98;71.37;98699.31;2127099;82;21068;-79
2021/11/02 02:29:46;;;;;;;63.17;37.17;;;;;;;8.95;71.60;98692.24;2128286;82;21008;-80
2021/11/02 02:32:52;;;;;;;62.62;37.65;;;;;;;8.95;71.70;98693.09;2128667;82;21029;-80
2021/11/02 02:35:56;;;;;;;63.38;37.05;;;;;;;8.94;71.70;98691.94;2132158;82;20989;-80
2021/11/02 02:39:02;;;;;;;63.95;36.17;;;;;;;8.95;71.73;98693.09;2114720;82;21555;-79
2021/11/02 02:42:07;;;;;;;59.48;36.20;;;;;;;9.02;71.86;98690.48;2106584;82;21016;-79
2021/11/02 02:45:15;;;;;;;57.70;37.33;;;;;;;9.13;71.83;98685.18;2103763;83;21108;-79
2021/11/02 02:48:19;;;;;;;58.52;35.83;;;;;;;9.13;71.68;98678.05;2103742;82;20977;-80
2021/11/02 02:51:22;;;;;;;61.95;36.90;;;;;;;9.20;71.80;98672.80;2100368;82;21543;-79
2021/11/02 02:54:26;;;;;;;63.20;39.75;;;;;;;9.22;71.72;98676.59;2101928;83;21001;-79
2021/11/02 02:57:29;;;;;;;65.57;38.10;;;;;;;9.12;71.70;98668.97;2078313;84;21092;-79
2021/11/02 03:00:33;;;;;;;60.92;36.17;;;;;;;9.05;71.75;98676.06;2092665;82;21056;-79
2021/11/02 03:03:39;;;;;;;62.00;36.85;;;;;;;9.04;71.84;98671.76;2096995;82;21101;-80
2021/11/02 03:06:45;;;;;;;57.98;34.78;;;;;;;9.02;71.94;98675.94;2101831;83;21607;-78
2021/11/02 03:09:49;;;;;;;61.37;36.98;;;;;;;9.06;72.11;98669.75;2100839;82;21004;-79
2021/11/02 03:12:53;;;;;;;58.83;36.15;;;;;;;9.08;72.15;98661.93;2097497;82;21079;-78
2021/11/02 03:16:02;;;;;;;61.73;37.85;;;;;;;9.10;72.21;98661.75;2102856;82;21533;-78
2021/11/02 03:43:36;;;;;;;49.85;31.05;;;;;;;9.10;72.24;98665.21;2031726;86;21566;-79
2021/11/02 03:49:01;;;;;;;44.27;28.80;;;;;;;8.75;73.72;98660.34;2127113;82;20993;-78
2021/11/02 03:55:09;;;;;;;47.20;27.65;;;;;;;8.57;74.65;98657.34;2132892;82;20989;-80
2021/11/02 03:58:22;;;;;;;42.35;28.62;;;;;;;8.50;74.61;98658.11;2128458;82;21031;-81
2021/11/02 04:01:33;;;;;;;44.70;29.85;;;;;;;8.46;75.23;98663.95;2130658;82;21076;-80
2021/11/02 04:35:18;;;;;;;49.53;34.13;;;;;;;8.38;77.16;98644.21;2127664;82;20988;-79
2021/11/02 04:45:38;;;;;;;48.42;29.82;;;;;;;8.41;77.43;98640.71;2133591;82;21035;-81
2021/11/02 05:06:45;;;;;;;49.73;32.75;;;;;;;8.53;77.52;98627.80;2133807;82;21098;-81
2021/11/02 05:48:52;;;;;;;42.03;26.87;;;;;;;8.80;78.17;98598.44;2089400;84;21082;-79
2021/11/02 05:58:36;;;;;;;39.95;28.60;;;;;;;8.89;78.35;98603.89;2079633;83;21022;-77
2021/11/02 06:07:54;;;;;;;41.98;28.85;;;;;;;8.84;78.38;98606.31;2085668;84;21017;-80
2021/11/02 06:11:07;;;;;;;37.20;26.80;;;;;;;8.84;78.45;98610.77;2087157;84;21080;-81
2021/11/02 06:28:08;;;;;;;33.08;24.40;;;;;;;8.87;79.14;98607.25;2086936;83;21683;-79
2021/11/02 06:31:15;;;;;;;31.87;22.87;;;;;;;8.88;79.50;98603.59;2085227;83;21095;-82
2021/11/02 06:34:21;;;;;;;31.20;22.75;;;;;;;8.87;79.81;98611.70;2090394;84;21040;-80
2021/11/02 06:47:07;;;;;;;27.90;20.30;;;;;;;8.84;81.78;98612.93;2090953;84;21034;-82
2021/11/02 07:00:34;;;;;;;30.02;19.85;;;;;;;8.89;83.19;98610.50;2088389;83;21037;-81
2021/11/02 07:26:44;;;;;;;29.50;19.92;;;;;;;9.06;84.90;98616.31;2080767;84;21734;-77
2021/11/02 07:30:14;;;;;;;27.42;19.73;;;;;;;9.08;85.03;98638.63;2083117;83;21056;-77
2021/11/02 08:47:21;;;;;;;12.18;8.45;;;;;;;9.28;83.39;98651.98;2083242;83;21037;-80
2021/11/02 08:50:21;;;;;;;8.85;6.87;;;;;;;9.17;83.00;98648.05;2100166;83;21132;-81
2021/11/02 08:53:25;;;;;;;8.58;6.58;;;;;;;9.03;82.99;98645.00;2102372;83;20950;-80
2021/11/02 08:56:27;;;;;;;6.45;5.30;;;;;;;8.92;82.87;98651.11;2100220;83;21064;-80
2021/11/02 08:59:33;;;;;;;5.97;4.85;;;;;;;8.85;82.88;98652.09;2096693;83;20986;-80
2021/11/02 09:02:40;;;;;;;5.05;4.55;;;;;;;8.77;82.98;98649.08;2097414;83;20994;-80
2021/11/02 09:05:45;;;;;;;7.20;5.20;;;;;;;8.72;82.96;98644.86;2092174;83;21047;-78
2021/11/02 09:09:01;;;;;;;5.72;5.12;;;;;;;8.69;83.08;98657.95;2100273;83;21089;-76
2021/11/02 09:11:55;;;;;;;7.20;5.97;;;;;;;8.69;82.96;98662.42;2096663;83;21108;-78
2021/11/02 09:15:01;;;;;;;7.08;5.55;;;;;;;8.74;82.99;98659.52;2098728;83;21491;-78
2021/11/02 09:18:07;;;;;;;6.33;5.45;;;;;;;8.76;82.82;98661.99;2102332;83;21071;-78
2021/11/02 09:21:09;;;;;;;6.97;5.65;;;;;;;8.80;82.86;98663.75;2099547;83;21049;-80
2021/11/02 09:24:15;;;;;;;5.17;4.75;;;;;;;8.84;82.88;98668.48;2099657;83;21501;-78
2021/11/02 09:27:18;;;;;;;4.72;4.22;;;;;;;8.89;82.70;98678.46;2102084;83;21069;-80
2021/11/02 09:30:22;;;;;;;5.28;4.53;;;;;;;8.87;82.50;98676.50;2095956;84;21084;-81
2021/11/02 09:33:24;;;;;;;6.45;4.58;;;;;;;8.88;82.43;98676.84;2102764;83;20978;-80
2021/11/02 09:36:31;;;;;;;6.30;5.70;;;;;;;8.86;82.33;98677.52;2101410;83;21608;-78
2021/11/02 09:39:40;;;;;;;6.10;5.40;;;;;;;8.86;82.35;98679.66;2098516;83;21511;-78
2021/11/02 09:43:18;;;;;;;6.10;4.80;;;;;;;8.86;82.25;98683.63;2132145;82;21057;-79
2021/11/02 09:46:45;;;;;;;7.22;4.58;;;;;;;8.82;82.17;98683.70;2132949;82;21123;-79
2021/11/02 09:50:42;;;;;;;5.22;4.40;;;;;;;8.81;82.12;98682.56;2132309;82;21345;-80
2021/11/02 09:54:24;;;;;;;4.50;4.10;;;;;;;8.80;82.17;98687.03;2129705;82;21013;-78
2021/11/02 09:57:43;;;;;;;5.25;4.28;;;;;;;8.80;82.14;98680.42;2056056;85;21054;-80
2021/11/02 10:01:03;;;;;;;5.28;3.95;;;;;;;8.80;82.15;98687.03;2128761;81;21068;-78
2021/11/02 10:04:34;;;;;;;4.60;4.08;;;;;;;8.80;82.10;98689.69;2132470;82;21041;-78
2021/11/02 10:08:21;;;;;;;5.17;4.45;;;;;;;8.80;81.98;98700.27;2130841;82;21021;-77
2021/11/02 10:12:05;;;;;;;5.50;4.50;;;;;;;8.80;81.91;98687.03;2130658;82;21051;-80
2021/11/02 10:15:16;;;;;;;7.83;4.85;;;;;;;8.74;81.88;98692.58;2133143;82;20985;-79
2021/11/02 10:18:49;;;;;;;7.80;4.87;;;;;;;8.68;81.98;98690.70;2122472;82;21467;-80
2021/11/02 10:22:24;;;;;;;5.72;4.35;;;;;;;8.65;82.10;98689.76;2129810;82;21563;-80
2021/11/02 10:25:54;;;;;;;5.17;4.67;;;;;;;8.71;82.25;98685.54;2129602;82;21094;-77
2021/11/02 10:29:05;;;;;;;5.40;4.90;;;;;;;8.68;82.06;98693.86;2132397;82;21040;-83
2021/11/02 10:32:12;;;;;;;6.83;4.83;;;;;;;8.69;82.05;98692.83;2132963;82;21096;-79
2021/11/02 10:35:21;;;;;;;4.95;4.45;;;;;;;8.63;82.06;98693.59;2132036;82;21059;-80
2021/11/02 10:38:35;;;;;;;8.10;4.78;;;;;;;8.63;82.12;98690.44;2128833;82;21051;-80
2021/11/02 10:41:59;;;;;;;6.33;4.85;;;;;;;8.66;82.15;98689.25;2127250;82;21088;-81
2021/11/02 10:45:07;;;;;;;6.33;5.00;;;;;;;8.74;82.12;98689.94;2125940;82;21056;-81
2021/11/02 10:48:11;;;;;;;5.05;4.40;;;;;;;8.79;82.04;98704.44;2104435;82;20969;-81
2021/11/02 10:51:40;;;;;;;5.47;4.67;;;;;;;8.77;81.91;98695.36;2125950;82;21582;-80
2021/11/02 10:54:53;;;;;;;4.90;4.45;;;;;;;8.68;81.75;98697.82;2119172;82;21021;-80
2021/11/02 10:58:23;;;;;;;4.50;4.10;;;;;;;8.58;81.81;98710.02;2128088;82;21012;-79
2021/11/02 11:01:28;;;;;;;5.85;4.33;;;;;;;8.50;81.89;98713.63;2134412;82;21563;-79
2021/11/02 11:04:33;;;;;;;6.87;4.50;;;;;;;8.39;82.31;98708.83;2129675;82;21562;-80
2021/11/02 11:07:39;;;;;;;8.38;4.67;;;;;;;8.31;82.37;98714.19;2130500;82;21041;-81
2021/11/02 11:10:45;;;;;;;8.48;5.67;;;;;;;8.26;82.59;98721.84;2127607;82;21489;-80
2021/11/02 11:13:49;;;;;;;5.37;4.37;;;;;;;8.24;82.47;98713.28;2127430;82;21036;-80
2021/11/02 11:16:52;;;;;;;4.08;3.67;;;;;;;8.25;82.53;98714.91;2124836;82;21004;-79
2021/11/02 11:20:13;;;;;;;5.20;4.40;;;;;;;8.26;82.63;98723.17;2125426;82;20981;-79
2021/11/02 11:23:15;;;;;;;5.33;4.25;;;;;;;8.25;82.84;98728.12;2126380;82;21060;-79
2021/11/02 11:26:18;;;;;;;6.17;4.40;;;;;;;8.25;82.91;98721.03;2130687;82;20989;-79
2021/11/02 11:29:26;;;;;;;4.30;3.90;;;;;;;8.27;82.78;98719.52;2127543;82;21113;-81
2021/11/02 11:32:34;;;;;;;5.72;4.55;;;;;;;8.30;82.95;98723.10;2133679;82;21032;-79
2021/11/02 11:35:38;;;;;;;5.42;3.85;;;;;;;8.30;82.92;98720.45;2131655;81;20997;-80
2021/11/02 11:38:43;;;;;;;3.50;2.95;;;;;;;8.28;82.91;98719.84;2126757;82;21036;-80
2021/11/02 11:41:50;;;;;;;4.80;2.80;;;;;;;8.26;82.84;98717.89;2110020;82;21064;-80
2021/11/02 11:44:53;;;;;;;4.92;2.80;;;;;;;8.27;82.82;98727.44;2099559;82;21021;-80
2021/11/02 11:48:24;;;;;;;3.67;2.67;;;;;;;8.34;82.80;98724.39;2099662;82;21018;-79
2021/11/02 11:51:31;;;;;;;4.55;4.05;;;;;;;8.44;82.81;98722.27;2095501;83;21084;-80
2021/11/02 11:54:49;;;;;;;6.35;4.33;;;;;;;8.61;82.96;98722.05;2091352;83;21477;-81
2021/11/02 11:58:12;;;;;;;10.88;7.70;;;;;;;8.78;83.05;98719.46;2093019;82;21059;-80
2021/11/02 12:01:34;;;;;;;8.15;5.67;;;;;;;8.98;83.10;98718.31;2095568;82;21062;-80
2021/11/02 12:04:49;;;;;;;4.40;4.00;;;;;;;9.20;82.85;98718.60;2094847;82;21369;-81
2021/11/02 12:08:16;;;;;;;5.87;4.72;;;;;;;9.35;82.35;98719.04;2095426;82;21008;-79
2021/11/02 12:11:29;;;;;;;8.23;5.17;;;;;;;9.41;82.24;98721.72;2096732;83;21069;-80
2021/11/02 12:14:34;;;;;;;6.50;5.17;;;;;;;9.49;81.88;98722.09;2102909;82;21056;-80
2021/11/02 12:17:40;;;;;;;7.62;5.65;;;;;;;9.51;81.60;98724.02;2095759;82;21065;-80
2021/11/02 12:20:43;;;;;;;7.80;5.45;;;;;;;9.52;81.52;98723.53;2099086;82;21028;-81
2021/11/02 12:23:47;;;;;;;7.40;5.37;;;;;;;9.49;81.24;98726.06;2096770;82;21028;-81
2021/11/02 12:26:50;;;;;;;9.68;5.58;;;;;;;9.46;81.33;98733.55;2080079;84;21024;-80
2021/11/02 12:29:52;;;;;;;7.40;4.87;;;;;;;9.40;80.89;98727.20;2096333;83;20957;-80
2021/11/02 12:32:56;;;;;;;12.45;5.90;;;;;;;9.31;80.67;98729.69;2098379;83;21088;-80
2021/11/02 12:35:58;;;;;;;8.40;4.85;;;;;;;9.26;80.88;98736.05;2099260;82;21537;-80
2021/11/02 12:39:06;;;;;;;7.45;5.08;;;;;;;9.26;80.79;98736.86;2098422;83;21017;-81
2021/11/02 12:42:08;;;;;;;7.55;4.85;;;;;;;9.23;80.73;98739.90;2093298;82;21071;-79
2021/11/02 12:45:12;;;;;;;9.43;6.22;;;;;;;9.23;80.86;98741.73;2093915;84;21001;-81
2021/11/02 12:48:14;;;;;;;12.98;8.15;;;;;;;9.27;80.92;98739.84;2091609;83;20982;-80
2021/11/02 12:51:22;;;;;;;13.05;8.63;;;;;;;9.35;81.04;98734.41;2086191;83;21477;-81
2021/11/02 12:54:26;;;;;;;11.28;8.35;;;;;;;9.32;80.71;98732.15;2088707;83;21075;-81
2021/11/02 12:57:41;;;;;;;12.40;7.25;;;;;;;9.21;80.50;98735.33;2094751;84;20950;-79
2021/11/02 13:01:02;;;;;;;10.72;6.60;;;;;;;9.14;80.59;98737.89;2095968;83;21539;-78
2021/11/02 13:04:10;;;;;;;;;;;;;;;9.13;80.71;98739.42;2092583;83;21052;-78
2021/11/02 13:07:13;;;;;;;13.08;6.10;;;;;;;9.13;80.72;98738.91;2093800;83;20422;-80
2021/11/02 13:10:21;;;;;;;10.25;6.05;;;;;;;9.17;80.72;98744.64;2090027;83;21119;-81
2021/11/02 13:13:27;;;;;;;8.73;6.90;;;;;;;9.24;80.76;98740.74;2093375;83;21084;-80
2021/11/02 13:16:33;;;;;;;11.38;5.92;;;;;;;9.33;80.86;98737.75;2067577;84;21061;-79
2021/11/02 13:19:44;;;;;;;8.08;6.42;;;;;;;9.38;80.54;98744.61;2088561;83;21026;-83
2021/11/02 13:22:53;;;;;;;9.53;6.53;;;;;;;9.39;80.43;98738.80;2035924;85;21605;-78
2021/11/02 13:25:55;;;;;;;8.75;6.28;;;;;;;9.40;80.38;98743.92;2089572;84;20983;-78
2021/11/02 13:29:21;;;;;;;12.18;8.08;;;;;;;9.48;80.49;98745.58;2093201;84;21501;-79
2021/11/02 13:32:23;;;;;;;9.75;7.12;;;;;;;9.53;80.38;98736.56;2087950;84;20983;-78
2021/11/02 13:35:59;;;;;;;11.33;6.83;;;;;;;9.54;79.83;98734.22;2089563;83;21481;-77
2021/11/02 13:39:06;;;;;;;13.60;8.65;;;;;;;9.58;79.91;98736.80;2060437;84;20969;-78
2021/11/02 13:42:08;;;;;;;9.45;6.17;;;;;;;9.63;79.84;98729.61;2110809;81;21010;-79
2021/11/02 13:45:14;;;;;;;5.42;3.45;;;;;;;9.71;79.99;98725.97;2131192;82;20958;-81
2021/11/02 13:48:17;;;;;;;5.22;3.58;;;;;;;9.80;79.72;98726.95;2128996;82;20996;-78
2021/11/02 13:51:19;;;;;;;9.73;5.15;;;;;;;9.86;79.42;98725.36;2125627;82;21028;-80
2021/11/02 13:54:21;;;;;;;11.10;6.58;;;;;;;9.92;79.11;98730.38;2131657;82;21002;-79
2021/11/02 13:57:22;;;;;;;16.12;8.75;;;;;;;9.96;79.09;98733.75;2124539;82;21024;-79
2021/11/02 14:00:24;;;;;;;13.70;8.20;;;;;;;9.96;78.74;98736.39;2128172;82;21048;-77
2021/11/02 14:03:39;;;;;;;8.65;3.33;;;;;;;9.98;78.64;98738.35;2127295;82;21017;-79
2021/11/02 14:06:45;;;;;;;6.33;3.67;;;;;;;9.98;78.39;98739.67;2127055;82;21025;-79
2021/11/02 14:09:58;;;;;;;5.95;4.03;;;;;;;10.02;78.22;98742.74;2126717;82;21020;-80
2021/11/02 14:12:59;;;;;;;5.67;3.92;;;;;;;10.03;78.21;98747.05;2126200;82;21068;-77
2021/11/02 14:16:02;;;;;;;4.08;3.42;;;;;;;10.02;78.13;98742.74;2128468;82;21514;-78
2021/11/02 14:19:06;;;;;;;9.30;3.70;;;;;;;9.97;77.92;98745.19;2129217;82;21732;-77
2021/11/02 14:22:13;;;;;;;4.87;3.27;;;;;;;9.91;78.04;98756.55;2125885;82;21005;-78
2021/11/02 14:25:21;;;;;;;7.72;2.85;;;;;;;9.93;78.05;98755.85;2127768;82;21040;-79
2021/11/02 14:28:32;;;;;;;4.92;3.25;;;;;;;9.98;77.87;98753.44;2131425;82;21012;-78
2021/11/02 14:31:45;;;;;;;;;;;;;;;9.98;77.84;98752.11;2125621;82;21048;-79
2021/11/02 14:34:47;;;;;;;11.25;5.17;;;;;;;10.02;77.74;98754.19;2128528;82;20336;-78
2021/11/02 14:37:51;;;;;;;15.68;6.08;;;;;;;9.98;77.37;98756.09;2127457;82;20985;-80
2021/11/02 14:40:59;;;;;;;11.97;5.53;;;;;;;9.89;77.41;98762.05;2131197;82;21028;-80
2021/11/02 14:44:23;;;;;;;17.70;7.33;;;;;;;9.84;77.40;98761.30;2133004;82;21061;-80
2021/11/02 14:47:37;;;;;;;22.87;7.80;;;;;;;9.82;77.45;98765.97;2130198;81;21036;-78
2021/11/02 14:50:42;;;;;;;8.25;4.08;;;;;;;9.71;77.29;98762.54;2128575;82;21648;-81
2021/11/02 14:53:45;;;;;;;7.97;4.67;;;;;;;9.60;76.88;98761.27;2128256;82;21044;-78
2021/11/02 14:56:47;;;;;;;8.15;4.00;;;;;;;9.53;77.07;98764.88;2126507;82;20981;-79
2021/11/02 14:59:52;;;;;;;7.10;4.85;;;;;;;9.49;77.04;98766.26;2129115;82;22153;-79
2021/11/02 15:02:54;;;;;;;8.08;4.80;;;;;;;9.47;77.03;98776.24;2128091;82;21563;-79
2021/11/02 15:06:05;;;;;;;5.87;4.35;;;;;;;9.39;77.07;98778.00;2126715;82;21016;-79
2021/11/02 15:09:13;;;;;;;6.90;4.33;;;;;;;9.37;77.12;98767.30;2126058;82;21072;-79
2021/11/02 15:12:14;;;;;;;8.95;4.37;;;;;;;9.33;77.05;98776.13;2130602;82;21040;-79
2021/11/02 15:15:16;;;;;;;5.37;4.05;;;;;;;9.23;77.05;98772.98;2133218;81;21646;-78
2021/11/02 15:18:18;;;;;;;4.67;3.60;;;;;;;9.12;77.06;98778.31;2126271;82;20977;-78
2021/11/02 15:21:56;;;;;;;5.90;4.03;;;;;;;9.10;77.20;98780.31;2127918;82;21012;-79
2021/11/02 15:25:01;;;;;;;7.45;4.60;;;;;;;9.12;77.41;98791.54;2124096;82;21539;-77
2021/11/02 15:28:04;;;;;;;8.00;5.20;;;;;;;9.10;77.40;98806.78;2128575;82;21064;-78
2021/11/02 15:31:06;;;;;;;21.80;12.07;;;;;;;9.14;77.63;98808.53;2128885;82;20991;-79
2021/11/02 15:34:15;;;;;;;27.13;11.83;;;;;;;9.17;77.71;98813.44;2125918;82;21020;-78
2021/11/02 15:37:39;;;;;;;62.53;19.80;;;;;;;9.16;77.72;98805.20;2129978;82;21060;-78
2021/11/02 15:40:43;;;;;;;63.13;23.50;;;;;;;9.10;77.65;98806.78;2121040;82;21096;-79
2021/11/02 15:43:57;;;;;;;77.47;24.12;;;;;;;9.11;77.75;98806.27;2124249;82;21621;-79
2021/11/02 15:47:00;;;;;;;65.10;21.73;;;;;;;9.13;77.77;98805.58;2122449;82;21499;-78
2021/11/02 15:50:09;;;;;;;43.70;15.05;;;;;;;9.13;77.77;98806.91;2122867;82;21053;-80
2021/11/02 15:53:12;;;;;;;41.98;14.30;;;;;;;9.12;77.87;98807.89;2121223;82;21473;-78
2021/11/02 15:56:14;;;;;;;32.60;13.93;;;;;;;9.12;77.78;98807.89;2120394;83;21115;-79
2021/11/02 15:59:20;;;;;;;29.42;14.60;;;;;;;9.11;77.55;98815.53;2120664;82;20934;-79
2021/11/02 16:02:40;;;;;;;32.35;17.00;;;;;;;9.11;77.65;98814.20;2121821;82;21021;-78
2021/11/02 16:05:45;;;;;;;37.67;17.30;;;;;;;9.13;77.57;98818.81;2118867;82;20994;-79
2021/11/02 16:09:01;;;;;;;29.10;14.70;;;;;;;9.10;77.54;98821.84;2118590;82;21039;-80
2021/11/02 16:12:11;;;;;;;45.30;21.90;;;;;;;9.11;77.65;98820.31;2124367;82;21044;-78
2021/11/02 16:15:26;;;;;;;37.38;15.13;;;;;;;9.11;77.61;98826.11;2120423;82;21512;-79
2021/11/02 16:18:32;;;;;;;40.73;15.53;;;;;;;9.12;77.76;98823.77;2122849;82;21020;-78
2021/11/02 16:21:34;;;;;;;33.10;14.43;;;;;;;9.10;77.85;98827.95;2125249;82;20989;-78
2021/11/02 16:24:37;;;;;;;30.12;14.80;;;;;;;9.14;78.08;98829.70;2123102;82;21041;-78
2021/11/02 16:27:38;;;;;;;32.93;15.13;;;;;;;9.16;78.03;98827.70;2124588;82;21040;-77
2021/11/02 16:30:46;;;;;;;33.60;17.48;;;;;;;9.14;78.01;98832.34;2121705;82;20997;-79
2021/11/02 16:33:48;;;;;;;49.93;26.20;;;;;;;9.18;78.14;98830.98;2120315;82;21024;-79
2021/11/02 16:36:51;;;;;;;38.30;20.35;;;;;;;9.13;77.93;98833.37;2126306;82;20988;-78
2021/11/02 16:40:23;;;;;;;24.90;14.40;;;;;;;9.07;77.91;98829.65;2121699;82;21551;-77
2021/11/02 16:43:38;;;;;;;23.40;12.65;;;;;;;9.07;78.08;98827.00;2112536;82;21564;-78
2021/11/02 16:46:48;;;;;;;38.40;19.00;;;;;;;9.04;77.99;98825.22;2111635;82;21013;-79
2021/11/02 16:49:49;;;;;;;38.40;21.25;;;;;;;9.04;78.09;98828.70;2106494;83;21133;-79
2021/11/02 16:52:51;;;;;;;34.08;18.27;;;;;;;9.01;77.95;98834.85;2106405;82;21798;-77
2021/11/02 16:55:54;;;;;;;26.77;15.08;;;;;;;9.02;78.02;98832.55;2115701;82;21001;-78
2021/11/02 16:58:57;;;;;;;27.42;14.85;;;;;;;9.03;77.94;98842.11;2111368;83;21024;-79
2021/11/02 17:02:23;;;;;;;27.02;14.53;;;;;;;9.00;77.94;98830.07;2112453;82;21005;-78
2021/11/02 17:05:27;;;;;;;25.65;13.18;;;;;;;8.93;77.78;98839.78;2112648;82;20985;-78
2021/11/02 17:08:32;;;;;;;27.50;12.82;;;;;;;8.80;77.68;98832.50;2087004;83;20993;-80
2021/11/02 17:11:47;;;;;;;31.35;15.00;;;;;;;8.67;77.63;98820.45;2107909;82;21024;-78
2021/11/02 17:14:50;;;;;;;43.83;20.60;;;;;;;8.59;77.71;98824.52;2113844;83;20989;-76
2021/11/02 17:17:56;;;;;;;34.88;21.15;;;;;;;8.52;77.71;98830.55;2082849;83;21040;-79
2021/11/02 17:21:05;;;;;;;38.05;18.90;;;;;;;8.46;77.74;98830.48;2111053;83;21095;-78
2021/11/02 17:24:09;;;;;;;30.85;17.52;;;;;;;8.39;77.82;98838.81;2108928;83;20989;-79
2021/11/02 17:27:11;;;;;;;33.95;18.92;;;;;;;8.34;77.96;98836.71;2110713;83;20944;-78
2021/11/02 17:30:23;;;;;;;25.15;14.20;;;;;;;8.32;78.06;98841.35;2111597;83;21498;-77
2021/11/02 17:33:26;;;;;;;14.15;8.83;;;;;;;8.31;78.16;98854.26;2109339;82;21014;-78
2021/11/02 17:36:29;;;;;;;27.25;14.33;;;;;;;8.32;78.44;98858.53;2109266;83;21131;-77
2021/11/02 17:39:35;;;;;;;33.53;17.75;;;;;;;8.38;78.46;98859.63;2110002;83;21079;-77
2021/11/02 17:42:37;;;;;;;28.00;16.65;;;;;;;8.38;78.36;98864.40;2119962;81;21072;-78
2021/11/02 17:45:39;;;;;;;22.87;12.50;;;;;;;8.37;78.32;98866.73;2134490;82;21036;-78
2021/11/02 17:48:42;;;;;;;15.63;9.33;;;;;;;8.33;78.27;98870.73;2127075;82;20981;-82
2021/11/02 17:51:45;;;;;;;13.93;8.83;;;;;;;8.32;78.26;98879.67;2129536;82;21475;-80
2021/11/02 17:54:48;;;;;;;13.72;8.98;;;;;;;8.31;78.33;98876.72;2131213;82;21012;-80
2021/11/02 17:57:54;;;;;;;13.00;7.90;;;;;;;8.31;78.35;98876.72;2132890;82;21234;-80
2021/11/02 18:01:00;;;;;;;12.78;7.95;;;;;;;8.31;78.30;98882.01;2126626;82;21012;-79
2021/11/02 18:04:03;;;;;;;17.67;9.28;;;;;;;8.32;78.36;98875.70;2127920;82;21501;-81
2021/11/02 18:07:05;;;;;;;15.03;8.65;;;;;;;8.32;78.27;98875.70;2129785;82;21049;-81
2021/11/02 18:10:10;;;;;;;19.27;9.83;;;;;;;8.28;78.20;98876.58;2121514;82;21519;-80
2021/11/02 18:13:12;;;;;;;18.30;9.85;;;;;;;8.28;78.19;98885.83;2122656;82;21294;-80
2021/11/02 18:16:14;;;;;;;12.43;7.67;;;;;;;8.24;78.16;98877.12;2128131;82;21860;-78
2021/11/02 18:19:16;;;;;;;12.20;6.33;;;;;;;8.19;78.15;98887.41;2129796;82;21044;-84
2021/11/02 18:22:22;;;;;;;12.18;6.30;;;;;;;8.21;78.29;98877.48;2126724;82;21041;-79
2021/11/02 18:25:24;;;;;;;17.57;8.83;;;;;;;8.27;78.32;98879.39;2129761;82;21087;-81
2021/11/02 18:28:27;;;;;;;13.40;8.03;;;;;;;8.26;78.13;98876.44;2130955;82;21033;-79
2021/11/02 18:31:29;;;;;;;20.25;8.58;;;;;;;8.22;78.07;98874.67;2128458;82;20981;-78
2021/11/02 18:34:31;;;;;;;11.83;8.05;;;;;;;8.18;78.09;98879.98;2129119;82;20977;-78
2021/11/02 18:37:32;;;;;;;19.27;9.65;;;;;;;8.19;78.19;98877.65;2129397;82;21669;-78
2021/11/02 18:40:36;;;;;;;14.80;6.92;;;;;;;8.20;78.21;98881.14;2129479;82;20973;-79
2021/11/02 18:43:39;;;;;;;14.38;8.25;;;;;;;8.18;78.25;98877.84;2128033;82;20978;-78
2021/11/02 18:46:41;;;;;;;17.20;9.98;;;;;;;8.21;78.19;98881.45;2130466;82;21028;-78
2021/11/02 18:49:49;;;;;;;16.30;8.95;;;;;;;8.22;78.20;98883.92;2125796;82;21001;-77
2021/11/02 18:52:51;;;;;;;19.87;11.15;;;;;;;8.26;78.15;98884.38;2125699;82;21005;-78
2021/11/02 18:55:54;;;;;;;25.90;11.48;;;;;;;8.29;78.14;98890.11;2123399;82;21120;-76
2021/11/02 18:58:56;;;;;;;19.62;10.00;;;;;;;8.37;78.05;98885.75;2127635;82;21551;-77
2021/11/02 19:01:57;;;;;;;21.35;9.80;;;;;;;8.33;77.92;98886.59;2125696;82;21020;-78
2021/11/02 19:04:59;;;;;;;17.65;7.45;;;;;;;8.33;77.98;98900.31;2125245;82;21637;-77
2021/11/02 19:08:01;;;;;;;11.50;6.03;;;;;;;8.27;77.90;98896.06;2128467;82;21036;-77
2021/11/02 19:11:02;;;;;;;9.63;4.50;;;;;;;8.22;77.87;98905.06;2123555;82;21499;-77
2021/11/02 19:14:10;;;;;;;8.28;5.03;;;;;;;8.15;77.92;98896.20;2127541;82;21578;-77